Time,TemperatureF,DewpointF,PressureIn,WindDirection,WindDirectionDegrees,WindSpeedMPH,WindSpeedGustMPH,Humidity,HourlyPrecipIn,Conditions,Clouds,dailyrainin,SolarRadiationWatts/m^2,SoftwareType,DateUTC
2013-08-16 00:00:00,64.8,60.8,30.07,WSW,241,0.0,3.0,87,0.00,,,0.00,0.0,meteohub,2013-08-16 07:00:00,
2013-08-16 00:05:00,64.6,60.6,30.08,WSW,241,0.0,3.0,87,0.00,,,0.00,0.0,meteohub,2013-08-16 07:05:00,
2013-08-16 00:10:00,64.6,60.6,30.08,WSW,241,1.0,3.0,87,0.00,,,0.00,0.0,meteohub,2013-08-16 07:10:00,
2013-08-16 00:16:00,64.4,60.4,30.08,WSW,241,0.0,3.0,87,0.00,,,0.00,0.0,meteohub,2013-08-16 07:16:00,
2013-08-16 00:21:00,64.2,60.6,30.07,WSW,241,1.0,3.0,88,0.00,,,0.00,0.0,meteohub,2013-08-16 07:21:00,
2013-08-16 00:26:00,64.2,60.6,30.07,WSW,241,0.0,2.0,88,0.00,,,0.00,0.0,meteohub,2013-08-16 07:26:00,
2013-08-16 00:31:00,64.0,60.1,30.07,WSW,241,3.0,3.0,87,0.00,,,0.00,0.0,meteohub,2013-08-16 07:31:00,
2013-08-16 00:36:00,64.0,60.4,30.07,SSW,198,0.0,5.0,88,0.00,,,0.00,0.0,meteohub,2013-08-16 07:36:00,
2013-08-16 00:41:00,64.0,60.4,30.07,WSW,244,0.0,5.0,88,0.00,,,0.00,0.0,meteohub,2013-08-16 07:41:00,
2013-08-16 00:46:00,63.9,60.3,30.07,WSW,244,0.0,4.0,88,0.00,,,0.00,0.0,meteohub,2013-08-16 07:46:00,
2013-08-16 00:51:00,63.9,60.3,30.07,WSW,242,0.0,3.0,88,0.00,,,0.00,0.0,meteohub,2013-08-16 07:51:00,
2013-08-16 00:56:00,63.9,60.3,30.07,WSW,242,0.0,2.0,88,0.00,,,0.00,0.0,meteohub,2013-08-16 07:56:00,
2013-08-16 01:01:00,63.9,60.3,30.07,WSW,242,0.0,2.0,88,0.00,,,0.00,0.0,meteohub,2013-08-16 08:01:00,
2013-08-16 01:06:00,63.7,60.1,30.07,SSW,205,0.0,3.0,88,0.00,,,0.00,0.0,meteohub,2013-08-16 08:06:00,
2013-08-16 01:11:00,63.7,60.1,30.07,SSW,205,0.0,3.0,88,0.00,,,0.00,0.0,meteohub,2013-08-16 08:11:00,
2013-08-16 01:16:00,63.7,60.1,30.07,SSW,205,0.0,3.0,88,0.00,,,0.00,0.0,meteohub,2013-08-16 08:16:00,
2013-08-16 01:21:00,63.5,59.9,30.06,SSW,205,0.0,0.0,88,0.00,,,0.00,0.0,meteohub,2013-08-16 08:21:00,
2013-08-16 01:26:00,63.3,59.7,30.06,SSW,205,0.0,1.0,88,0.00,,,0.00,0.0,meteohub,2013-08-16 08:26:00,
2013-08-16 01:31:00,63.3,59.7,30.06,SSW,205,0.0,1.0,88,0.00,,,0.00,0.0,meteohub,2013-08-16 08:31:00,
2013-08-16 01:36:00,63.1,59.5,30.06,SSW,205,0.0,1.0,88,0.00,,,0.00,0.0,meteohub,2013-08-16 08:36:00,
2013-08-16 01:41:00,63.1,59.9,30.06,SSW,205,0.0,1.0,89,0.00,,,0.00,0.0,meteohub,2013-08-16 08:41:00,
2013-08-16 01:46:00,63.0,59.7,30.06,SSW,205,0.0,2.0,89,0.00,,,0.00,0.0,meteohub,2013-08-16 08:46:00,
2013-08-16 01:51:00,63.0,59.7,30.06,SSW,205,0.0,2.0,89,0.00,,,0.00,0.0,meteohub,2013-08-16 08:51:00,
2013-08-16 01:56:00,63.0,59.7,30.06,SSW,205,0.0,2.0,89,0.00,,,0.00,0.0,meteohub,2013-08-16 08:56:00,
2013-08-16 02:01:00,62.8,59.5,30.06,SSW,205,0.0,2.0,89,0.00,,,0.00,0.0,meteohub,2013-08-16 09:01:00,
2013-08-16 02:06:00,62.8,59.5,30.06,SSW,205,0.0,2.0,89,0.00,,,0.00,0.0,meteohub,2013-08-16 09:06:00,
2013-08-16 02:12:00,62.6,59.4,30.06,SSW,205,0.0,2.0,89,0.00,,,0.00,0.0,meteohub,2013-08-16 09:12:00,
2013-08-16 02:17:00,62.4,59.2,30.06,SSW,205,0.0,1.0,89,0.00,,,0.00,0.0,meteohub,2013-08-16 09:17:00,
2013-08-16 02:22:00,62.4,59.2,30.06,SSW,205,0.0,1.0,89,0.00,,,0.00,0.0,meteohub,2013-08-16 09:22:00,
2013-08-16 02:27:00,62.4,59.2,30.06,SSW,205,0.0,2.0,89,0.00,,,0.00,0.0,meteohub,2013-08-16 09:27:00,
2013-08-16 02:32:00,62.2,59.2,30.06,SSW,205,0.0,2.0,90,0.00,,,0.00,0.0,meteohub,2013-08-16 09:32:00,
2013-08-16 02:37:00,62.2,59.2,30.06,SSW,205,0.0,2.0,90,0.00,,,0.00,0.0,meteohub,2013-08-16 09:37:00,
2013-08-16 02:42:00,62.2,59.2,30.06,SSW,205,0.0,2.0,90,0.00,,,0.00,0.0,meteohub,2013-08-16 09:42:00,
2013-08-16 02:47:00,62.1,59.2,30.06,SSW,205,1.0,2.0,90,0.00,,,0.00,0.0,meteohub,2013-08-16 09:47:00,
2013-08-16 02:52:00,62.1,59.2,30.06,SSW,205,0.0,3.0,90,0.00,,,0.00,0.0,meteohub,2013-08-16 09:52:00,
2013-08-16 02:57:00,61.9,59.0,30.06,SSW,205,1.0,3.0,90,0.00,,,0.00,0.0,meteohub,2013-08-16 09:57:00,
2013-08-16 03:02:00,61.9,59.0,30.05,SSW,205,0.0,3.0,90,0.00,,,0.00,0.0,meteohub,2013-08-16 10:02:00,
2013-08-16 03:07:00,61.9,59.2,30.06,SSW,205,1.0,2.0,91,0.00,,,0.00,0.0,meteohub,2013-08-16 10:07:00,
2013-08-16 03:12:00,61.9,59.2,30.06,SSW,205,0.0,2.0,91,0.00,,,0.00,0.0,meteohub,2013-08-16 10:12:00,
2013-08-16 03:17:00,61.7,59.0,30.06,SSW,205,0.0,2.0,91,0.00,,,0.00,0.0,meteohub,2013-08-16 10:17:00,
2013-08-16 03:22:00,61.5,58.8,30.06,SSW,205,0.0,2.0,91,0.00,,,0.00,0.0,meteohub,2013-08-16 10:22:00,
2013-08-16 03:27:00,61.5,58.8,30.06,SSW,205,0.0,1.0,91,0.00,,,0.00,0.0,meteohub,2013-08-16 10:27:00,
2013-08-16 03:32:00,61.5,58.8,30.06,SSW,205,0.0,1.0,91,0.00,,,0.00,0.0,meteohub,2013-08-16 10:32:00,
2013-08-16 03:37:00,61.5,58.8,30.06,SSW,205,0.0,1.0,91,0.00,,,0.00,0.0,meteohub,2013-08-16 10:37:00,
2013-08-16 03:42:00,61.3,58.6,30.06,SSW,205,0.0,0.0,91,0.00,,,0.00,0.0,meteohub,2013-08-16 10:42:00,
2013-08-16 03:47:00,61.3,58.6,30.06,SSW,205,0.0,0.0,91,0.00,,,0.00,0.0,meteohub,2013-08-16 10:47:00,
2013-08-16 03:52:00,61.3,58.6,30.06,SSW,205,0.0,0.0,91,0.00,,,0.00,0.0,meteohub,2013-08-16 10:52:00,
2013-08-16 03:57:00,61.3,58.6,30.06,SSW,205,0.0,0.0,91,0.00,,,0.00,0.0,meteohub,2013-08-16 10:57:00,
2013-08-16 04:02:00,61.3,58.6,30.06,SSW,205,0.0,1.0,91,0.00,,,0.00,0.0,meteohub,2013-08-16 11:02:00,
2013-08-16 04:07:00,61.3,58.6,30.06,SSW,205,1.0,1.0,91,0.00,,,0.00,0.0,meteohub,2013-08-16 11:07:00,
2013-08-16 04:12:00,61.3,58.6,30.06,SSW,205,0.0,1.0,91,0.00,,,0.00,0.0,meteohub,2013-08-16 11:12:00,
2013-08-16 04:17:00,61.3,59.0,30.06,SSW,205,0.0,2.0,92,0.00,,,0.00,0.0,meteohub,2013-08-16 11:17:00,
2013-08-16 04:22:00,61.3,59.0,30.06,SSW,205,0.0,2.0,92,0.00,,,0.00,0.0,meteohub,2013-08-16 11:22:00,
2013-08-16 04:27:00,61.2,58.8,30.06,SSW,205,0.0,2.0,92,0.00,,,0.00,0.0,meteohub,2013-08-16 11:27:00,
2013-08-16 04:32:00,61.3,59.0,30.06,SSW,205,0.0,1.0,92,0.00,,,0.00,0.0,meteohub,2013-08-16 11:32:00,
2013-08-16 04:37:00,61.3,59.0,30.06,SSW,205,0.0,2.0,92,0.00,,,0.00,0.0,meteohub,2013-08-16 11:37:00,
2013-08-16 04:42:00,61.3,59.0,30.06,SSW,208,0.0,3.0,92,0.00,,,0.00,0.0,meteohub,2013-08-16 11:42:00,
2013-08-16 04:47:00,61.3,59.0,30.06,SSW,209,0.0,3.0,92,0.00,,,0.00,0.0,meteohub,2013-08-16 11:47:00,
2013-08-16 04:52:00,61.3,59.0,30.06,SSW,209,0.0,3.0,92,0.00,,,0.00,0.0,meteohub,2013-08-16 11:52:00,
2013-08-16 04:57:00,61.3,59.0,30.06,SSW,209,0.0,3.0,92,0.00,,,0.00,0.0,meteohub,2013-08-16 11:57:00,
2013-08-16 05:02:00,61.3,59.0,30.06,WSW,247,0.0,3.0,92,0.00,,,0.00,0.0,meteohub,2013-08-16 12:02:00,
2013-08-16 05:07:00,61.3,59.0,30.06,SSW,213,1.0,2.0,92,0.00,,,0.00,0.0,meteohub,2013-08-16 12:07:00,
2013-08-16 05:12:00,61.5,59.2,30.06,WSW,242,0.0,2.0,92,0.00,,,0.00,0.0,meteohub,2013-08-16 12:12:00,
2013-08-16 05:17:00,61.3,59.0,30.06,WSW,242,0.0,3.0,92,0.00,,,0.00,0.0,meteohub,2013-08-16 12:17:00,
2013-08-16 05:22:00,61.5,59.2,30.06,SW,215,0.0,3.0,92,0.00,,,0.00,0.0,meteohub,2013-08-16 12:22:00,
2013-08-16 05:27:00,61.5,59.2,30.06,SW,222,0.0,3.0,92,0.00,,,0.00,0.0,meteohub,2013-08-16 12:27:00,
2013-08-16 05:32:00,61.5,59.2,30.06,SW,222,0.0,3.0,92,0.00,,,0.00,0.0,meteohub,2013-08-16 12:32:00,
2013-08-16 05:37:00,61.5,59.2,30.06,SW,222,1.0,3.0,92,0.00,,,0.00,0.0,meteohub,2013-08-16 12:37:00,
2013-08-16 05:42:00,61.5,59.2,30.06,SW,222,0.0,2.0,92,0.00,,,0.00,0.0,meteohub,2013-08-16 12:42:00,
2013-08-16 05:47:00,61.5,59.2,30.06,WSW,246,0.0,3.0,92,0.00,,,0.00,0.0,meteohub,2013-08-16 12:47:00,
2013-08-16 05:52:00,61.3,59.0,30.06,WSW,239,0.0,3.0,92,0.00,,,0.00,0.0,meteohub,2013-08-16 12:52:00,
2013-08-16 05:57:00,61.3,59.0,30.06,WSW,239,0.0,3.0,92,0.00,,,0.00,0.0,meteohub,2013-08-16 12:57:00,
2013-08-16 06:02:00,61.3,59.0,30.06,WSW,240,0.0,2.0,92,0.00,,,0.00,0.0,meteohub,2013-08-16 13:02:00,
2013-08-16 06:07:00,61.3,59.0,30.06,WSW,240,0.0,2.0,92,0.00,,,0.00,0.0,meteohub,2013-08-16 13:07:00,
2013-08-16 06:12:00,61.3,59.4,30.06,WNW,301,2.0,2.0,93,0.00,,,0.00,0.0,meteohub,2013-08-16 13:12:00,
2013-08-16 06:17:00,61.3,59.4,30.07,WNW,301,0.0,2.0,93,0.00,,,0.00,0.0,meteohub,2013-08-16 13:17:00,
2013-08-16 06:22:00,61.3,59.4,30.07,WNW,290,1.0,2.0,93,0.00,,,0.00,0.0,meteohub,2013-08-16 13:22:00,
2013-08-16 06:27:00,61.3,59.4,30.07,SW,232,1.0,2.0,93,0.00,,,0.00,0.0,meteohub,2013-08-16 13:27:00,
2013-08-16 06:32:00,61.3,59.4,30.07,SW,215,0.0,3.0,93,0.00,,,0.00,0.0,meteohub,2013-08-16 13:32:00,
2013-08-16 06:37:00,61.3,59.4,30.07,SW,215,0.0,3.0,93,0.00,,,0.00,0.0,meteohub,2013-08-16 13:37:00,
2013-08-16 06:42:00,61.2,59.2,30.07,SW,215,0.0,3.0,93,0.00,,,0.00,5.0,meteohub,2013-08-16 13:42:00,
2013-08-16 06:47:00,61.3,59.4,30.07,SW,215,1.0,3.0,93,0.00,,,0.00,7.0,meteohub,2013-08-16 13:47:00,
2013-08-16 06:52:00,61.3,59.4,30.07,SW,215,0.0,3.0,93,0.00,,,0.00,9.0,meteohub,2013-08-16 13:52:00,
2013-08-16 06:57:00,61.3,59.4,30.08,WSW,247,0.0,2.0,93,0.00,,,0.00,9.0,meteohub,2013-08-16 13:57:00,
2013-08-16 07:02:00,61.3,59.4,30.08,West,271,0.0,3.0,93,0.00,,,0.00,11.0,meteohub,2013-08-16 14:02:00,
2013-08-16 07:07:00,61.3,59.4,30.08,West,271,0.0,3.0,93,0.00,,,0.00,11.0,meteohub,2013-08-16 14:07:00,
2013-08-16 07:12:00,61.3,59.4,30.08,West,271,2.0,2.0,93,0.00,,,0.00,12.0,meteohub,2013-08-16 14:12:00,
2013-08-16 07:17:00,61.5,59.5,30.08,SW,217,1.0,4.0,93,0.00,,,0.00,14.0,meteohub,2013-08-16 14:17:00,
2013-08-16 07:22:00,61.5,59.5,30.08,West,277,0.0,4.0,93,0.00,,,0.00,14.0,meteohub,2013-08-16 14:22:00,
2013-08-16 07:27:00,61.5,59.5,30.08,West,277,0.0,4.0,93,0.00,,,0.00,14.0,meteohub,2013-08-16 14:27:00,
2013-08-16 07:32:00,61.9,59.9,30.08,SW,233,0.0,3.0,93,0.00,,,0.00,14.0,meteohub,2013-08-16 14:32:00,
2013-08-16 07:37:00,61.9,60.1,30.08,SW,226,0.0,4.0,94,0.00,,,0.00,16.0,meteohub,2013-08-16 14:37:00,
2013-08-16 07:42:00,62.1,60.3,30.09,West,273,2.0,4.0,94,0.00,,,0.00,16.0,meteohub,2013-08-16 14:42:00,
2013-08-16 07:47:00,62.2,60.4,30.09,SW,234,4.0,5.0,94,0.00,,,0.00,18.0,meteohub,2013-08-16 14:47:00,
2013-08-16 07:52:00,62.2,60.3,30.09,SW,230,2.0,5.0,93,0.00,,,0.00,18.0,meteohub,2013-08-16 14:52:00,
2013-08-16 07:57:00,62.4,60.4,30.09,SW,236,1.0,5.0,93,0.00,,,0.00,18.0,meteohub,2013-08-16 14:57:00,
2013-08-16 08:02:00,62.6,60.8,30.09,SW,223,1.0,5.0,94,0.00,,,0.00,18.0,meteohub,2013-08-16 15:02:00,
2013-08-16 08:07:00,62.8,61.0,30.09,West,281,0.0,4.0,94,0.00,,,0.00,18.0,meteohub,2013-08-16 15:07:00,
2013-08-16 08:12:00,63.0,61.2,30.09,WSW,241,1.0,4.0,94,0.00,,,0.00,18.0,meteohub,2013-08-16 15:12:00,
2013-08-16 08:17:00,63.0,61.0,30.09,SW,215,2.0,4.0,93,0.00,,,0.00,19.0,meteohub,2013-08-16 15:17:00,
2013-08-16 08:22:00,63.1,61.2,30.09,SW,215,1.0,4.0,93,0.00,,,0.00,19.0,meteohub,2013-08-16 15:22:00,
2013-08-16 08:27:00,63.3,61.5,30.09,SW,215,0.0,3.0,94,0.00,,,0.00,19.0,meteohub,2013-08-16 15:27:00,
2013-08-16 08:32:00,63.5,61.5,30.09,WSW,241,3.0,3.0,93,0.00,,,0.00,19.0,meteohub,2013-08-16 15:32:00,
2013-08-16 08:37:00,63.7,61.7,30.09,NW,306,0.0,4.0,93,0.00,,,0.00,19.0,meteohub,2013-08-16 15:37:00,
2013-08-16 08:42:00,64.0,62.1,30.09,WSW,245,1.0,4.0,93,0.00,,,0.00,19.0,meteohub,2013-08-16 15:42:00,
2013-08-16 08:47:00,64.2,62.2,30.09,SW,236,0.0,7.0,93,0.00,,,0.00,19.0,meteohub,2013-08-16 15:47:00,
2013-08-16 08:52:00,64.8,62.4,30.09,NW,306,0.0,7.0,92,0.00,,,0.00,19.0,meteohub,2013-08-16 15:52:00,
2013-08-16 08:58:00,65.1,62.8,30.09,WSW,238,2.0,7.0,92,0.00,,,0.00,21.0,meteohub,2013-08-16 15:58:00,
2013-08-16 09:03:00,65.5,62.8,30.09,WNW,301,1.0,5.0,91,0.00,,,0.00,21.0,meteohub,2013-08-16 16:03:00,
2013-08-16 09:08:00,65.8,62.8,30.09,NW,305,1.0,5.0,90,0.00,,,0.00,23.0,meteohub,2013-08-16 16:08:00,
2013-08-16 09:13:00,66.4,63.0,30.09,SW,226,4.0,6.0,89,0.00,,,0.00,25.0,meteohub,2013-08-16 16:13:00,
2013-08-16 09:18:00,66.7,62.8,30.09,WSW,239,2.0,6.0,87,0.00,,,0.00,26.0,meteohub,2013-08-16 16:18:00,
2013-08-16 09:23:00,67.3,63.0,30.09,NW,306,0.0,7.0,86,0.00,,,0.00,28.0,meteohub,2013-08-16 16:23:00,
2013-08-16 09:28:00,67.8,63.1,30.09,WSW,248,0.0,8.0,85,0.00,,,0.00,30.0,meteohub,2013-08-16 16:28:00,
2013-08-16 09:33:00,68.2,63.1,30.09,WSW,249,3.0,8.0,84,0.00,,,0.00,28.0,meteohub,2013-08-16 16:33:00,
2013-08-16 09:38:00,68.7,63.3,30.09,SW,221,6.0,6.0,83,0.00,,,0.00,23.0,meteohub,2013-08-16 16:38:00,
2013-08-16 09:43:00,69.1,63.3,30.09,West,276,2.0,6.0,82,0.00,,,0.00,23.0,meteohub,2013-08-16 16:43:00,
2013-08-16 09:48:00,69.6,63.1,30.09,WSW,243,1.0,6.0,80,0.00,,,0.00,25.0,meteohub,2013-08-16 16:48:00,
2013-08-16 09:53:00,70.3,63.5,30.09,SW,235,3.0,6.0,79,0.00,,,0.00,26.0,meteohub,2013-08-16 16:53:00,
2013-08-16 09:59:00,70.9,63.7,30.09,SW,236,5.0,6.0,78,0.00,,,0.00,25.0,meteohub,2013-08-16 16:59:00,
2013-08-16 10:04:00,71.4,63.9,30.09,SW,229,6.0,7.0,77,0.00,,,0.00,26.0,meteohub,2013-08-16 17:04:00,
2013-08-16 10:09:00,72.0,63.7,30.09,WSW,240,4.0,7.0,75,0.00,,,0.00,28.0,meteohub,2013-08-16 17:09:00,
2013-08-16 10:14:00,72.7,63.5,30.09,WSW,247,4.0,7.0,73,0.00,,,0.00,28.0,meteohub,2013-08-16 17:14:00,
2013-08-16 10:19:00,73.0,63.1,30.09,WSW,250,3.0,8.0,71,0.00,,,0.00,30.0,meteohub,2013-08-16 17:19:00,
2013-08-16 10:24:00,73.8,63.7,30.09,WSW,247,1.0,8.0,71,0.00,,,0.00,37.0,meteohub,2013-08-16 17:24:00,
2013-08-16 10:29:00,74.3,63.1,30.09,SW,234,3.0,8.0,68,0.00,,,0.00,33.0,meteohub,2013-08-16 17:29:00,
2013-08-16 10:34:00,74.8,63.1,30.09,WSW,238,4.0,7.0,67,0.00,,,0.00,35.0,meteohub,2013-08-16 17:34:00,
2013-08-16 10:40:00,75.4,63.7,30.09,SW,232,4.0,8.0,67,0.00,,,0.00,116.0,meteohub,2013-08-16 17:40:00,
2013-08-16 10:45:00,75.7,63.1,30.09,WSW,250,2.0,8.0,65,0.00,,,0.00,46.0,meteohub,2013-08-16 17:45:00,
2013-08-16 10:50:00,76.3,63.7,30.09,WSW,255,2.0,8.0,65,0.00,,,0.00,37.0,meteohub,2013-08-16 17:50:00,
2013-08-16 10:55:00,76.8,62.8,30.09,SW,216,3.0,8.0,62,0.00,,,0.00,39.0,meteohub,2013-08-16 17:55:00,
2013-08-16 11:00:00,77.5,63.5,30.09,SSW,213,1.0,8.0,62,0.00,,,0.00,39.0,meteohub,2013-08-16 18:00:00,
2013-08-16 11:05:00,78.1,63.5,30.09,SW,220,0.0,8.0,61,0.00,,,0.00,40.0,meteohub,2013-08-16 18:05:00,
2013-08-16 11:11:00,78.4,63.3,30.09,WSW,244,5.0,8.0,60,0.00,,,0.00,40.0,meteohub,2013-08-16 18:11:00,
2013-08-16 11:16:00,79.0,63.9,30.09,WNW,285,2.0,9.0,60,0.00,,,0.00,40.0,meteohub,2013-08-16 18:16:00,
2013-08-16 11:21:00,80.1,63.9,30.09,SW,233,6.0,9.0,58,0.00,,,0.00,42.0,meteohub,2013-08-16 18:21:00,
2013-08-16 11:26:00,80.6,64.0,30.09,SW,228,4.0,9.0,57,0.00,,,0.00,42.0,meteohub,2013-08-16 18:26:00,
2013-08-16 11:31:00,80.8,63.7,30.09,WSW,250,4.0,8.0,56,0.00,,,0.00,44.0,meteohub,2013-08-16 18:31:00,
2013-08-16 11:36:00,81.7,63.5,30.09,SW,230,4.0,8.0,54,0.00,,,0.00,44.0,meteohub,2013-08-16 18:36:00,
2013-08-16 11:41:00,82.0,63.7,30.09,SW,227,3.0,8.0,54,0.00,,,0.00,46.0,meteohub,2013-08-16 18:41:00,
2013-08-16 11:47:00,82.6,63.1,30.09,WSW,240,6.0,8.0,52,0.00,,,0.00,46.0,meteohub,2013-08-16 18:47:00,
2013-08-16 11:52:00,82.9,63.0,30.09,SW,219,1.0,8.0,51,0.00,,,0.00,185.0,meteohub,2013-08-16 18:52:00,
2013-08-16 11:57:00,83.5,63.0,30.09,SW,231,4.0,8.0,50,0.00,,,0.00,698.0,meteohub,2013-08-16 18:57:00,
2013-08-16 12:02:00,83.8,62.6,30.09,SSW,204,2.0,8.0,49,0.00,,,0.00,817.0,meteohub,2013-08-16 19:02:00,
2013-08-16 12:07:00,84.4,62.6,30.09,WSW,244,3.0,10.0,48,0.00,,,0.00,823.0,meteohub,2013-08-16 19:07:00,
2013-08-16 12:12:00,84.7,62.2,30.09,NW,315,3.0,10.0,47,0.00,,,0.00,828.0,meteohub,2013-08-16 19:12:00,
2013-08-16 12:17:00,84.7,62.2,30.09,West,273,2.0,10.0,47,0.00,,,0.00,837.0,meteohub,2013-08-16 19:17:00,
2013-08-16 12:22:00,84.9,62.4,30.09,SSW,213,5.0,10.0,47,0.00,,,0.00,837.0,meteohub,2013-08-16 19:22:00,
2013-08-16 12:27:00,85.1,62.6,30.09,WSW,246,5.0,10.0,47,0.00,,,0.00,846.0,meteohub,2013-08-16 19:27:00,
2013-08-16 12:32:00,85.3,62.2,30.09,West,267,3.0,8.0,46,0.00,,,0.00,847.0,meteohub,2013-08-16 19:32:00,
2013-08-16 12:37:00,85.6,62.4,30.09,WNW,289,5.0,8.0,46,0.00,,,0.00,851.0,meteohub,2013-08-16 19:37:00,
2013-08-16 12:42:00,86.2,63.0,30.09,West,275,4.0,8.0,46,0.00,,,0.00,895.0,meteohub,2013-08-16 19:42:00,
2013-08-16 12:47:00,86.4,62.4,30.09,WSW,257,6.0,9.0,45,0.00,,,0.00,858.0,meteohub,2013-08-16 19:47:00,
2013-08-16 12:52:00,86.7,63.5,30.09,West,263,5.0,9.0,46,0.00,,,0.00,858.0,meteohub,2013-08-16 19:52:00,
2013-08-16 12:57:00,86.5,62.6,30.09,West,268,5.0,10.0,45,0.00,,,0.00,860.0,meteohub,2013-08-16 19:57:00,
2013-08-16 13:02:00,86.9,62.4,30.09,West,278,5.0,10.0,44,0.00,,,0.00,861.0,meteohub,2013-08-16 20:02:00,
2013-08-16 13:07:00,86.4,62.4,30.09,WSW,247,6.0,11.0,45,0.00,,,0.00,865.0,meteohub,2013-08-16 20:07:00,
2013-08-16 13:12:00,86.5,62.6,30.08,West,268,5.0,11.0,45,0.00,,,0.00,868.0,meteohub,2013-08-16 20:12:00,
2013-08-16 13:17:00,87.6,63.0,30.08,WSW,246,4.0,11.0,44,0.00,,,0.00,867.0,meteohub,2013-08-16 20:17:00,
2013-08-16 13:22:00,88.3,62.4,30.08,SW,219,8.0,10.0,42,0.00,,,0.00,868.0,meteohub,2013-08-16 20:22:00,
2013-08-16 13:27:00,87.8,61.9,30.08,WSW,250,6.0,11.0,42,0.00,,,0.00,868.0,meteohub,2013-08-16 20:27:00,
2013-08-16 13:32:00,88.0,61.3,30.08,WSW,237,4.0,11.0,41,0.00,,,0.00,863.0,meteohub,2013-08-16 20:32:00,
2013-08-16 13:37:00,88.2,61.5,30.08,West,266,4.0,11.0,41,0.00,,,0.00,868.0,meteohub,2013-08-16 20:37:00,
2013-08-16 13:42:00,88.5,61.9,30.08,SSW,208,5.0,9.0,41,0.00,,,0.00,865.0,meteohub,2013-08-16 20:42:00,
2013-08-16 13:47:00,88.7,60.6,30.08,West,275,8.0,9.0,39,0.00,,,0.00,867.0,meteohub,2013-08-16 20:47:00,
2013-08-16 13:52:00,88.5,60.4,30.08,SW,223,7.0,10.0,39,0.00,,,0.00,863.0,meteohub,2013-08-16 20:52:00,
2013-08-16 13:57:00,88.0,59.9,30.08,SW,234,6.0,10.0,39,0.00,,,0.00,861.0,meteohub,2013-08-16 20:57:00,
2013-08-16 14:02:00,88.2,59.4,30.08,WSW,257,7.0,10.0,38,0.00,,,0.00,860.0,meteohub,2013-08-16 21:02:00,
2013-08-16 14:07:00,88.7,59.9,30.08,WSW,249,6.0,10.0,38,0.00,,,0.00,858.0,meteohub,2013-08-16 21:07:00,
2013-08-16 14:12:00,88.9,59.9,30.08,West,271,3.0,10.0,38,0.00,,,0.00,854.0,meteohub,2013-08-16 21:12:00,
2013-08-16 14:17:00,89.2,59.5,30.08,West,261,6.0,10.0,37,0.00,,,0.00,853.0,meteohub,2013-08-16 21:17:00,
2013-08-16 14:22:00,89.1,58.6,30.08,SW,231,4.0,10.0,36,0.00,,,0.00,846.0,meteohub,2013-08-16 21:22:00,
2013-08-16 14:27:00,89.1,58.6,30.07,SW,227,8.0,10.0,36,0.00,,,0.00,844.0,meteohub,2013-08-16 21:27:00,
2013-08-16 14:32:00,88.5,59.0,30.07,WNW,290,4.0,11.0,37,0.00,,,0.00,842.0,meteohub,2013-08-16 21:32:00,
2013-08-16 14:37:00,88.7,58.3,30.07,WNW,287,4.0,12.0,36,0.00,,,0.00,837.0,meteohub,2013-08-16 21:37:00,
2013-08-16 14:43:00,88.9,58.5,30.07,WSW,242,7.0,12.0,36,0.00,,,0.00,840.0,meteohub,2013-08-16 21:43:00,
2013-08-16 14:48:00,89.2,58.8,30.07,SW,223,6.0,12.0,36,0.00,,,0.00,775.0,meteohub,2013-08-16 21:48:00,
2013-08-16 14:53:00,89.1,58.6,30.07,WSW,244,6.0,12.0,36,0.00,,,0.00,824.0,meteohub,2013-08-16 21:53:00,
2013-08-16 14:58:00,89.1,57.9,30.07,West,261,8.0,11.0,35,0.00,,,0.00,821.0,meteohub,2013-08-16 21:58:00,
2013-08-16 15:03:00,88.7,57.6,30.07,SW,223,7.0,13.0,35,0.00,,,0.00,826.0,meteohub,2013-08-16 22:03:00,
2013-08-16 15:08:00,88.2,57.0,30.07,West,277,6.0,13.0,35,0.00,,,0.00,573.0,meteohub,2013-08-16 22:08:00,
2013-08-16 15:13:00,87.8,56.7,30.07,West,260,5.0,13.0,35,0.00,,,0.00,805.0,meteohub,2013-08-16 22:13:00,
2013-08-16 15:19:00,88.3,57.2,30.07,SW,226,9.0,12.0,35,0.00,,,0.00,795.0,meteohub,2013-08-16 22:19:00,
2013-08-16 15:24:00,88.9,57.7,30.07,West,278,5.0,12.0,35,0.00,,,0.00,795.0,meteohub,2013-08-16 22:24:00,
2013-08-16 15:29:00,89.4,58.1,30.07,WSW,252,6.0,11.0,35,0.00,,,0.00,661.0,meteohub,2013-08-16 22:29:00,
2013-08-16 15:34:00,88.7,57.6,30.07,SW,229,8.0,10.0,35,0.00,,,0.00,765.0,meteohub,2013-08-16 22:34:00,
2013-08-16 15:39:00,87.8,56.7,30.06,WSW,240,6.0,10.0,35,0.00,,,0.00,749.0,meteohub,2013-08-16 22:39:00,
2013-08-16 15:44:00,87.8,57.6,30.06,West,267,4.0,11.0,36,0.00,,,0.00,738.0,meteohub,2013-08-16 22:44:00,
2013-08-16 15:49:00,87.4,57.2,30.06,WSW,244,4.0,11.0,36,0.00,,,0.00,728.0,meteohub,2013-08-16 22:49:00,
2013-08-16 15:54:00,88.2,57.9,30.06,WSW,240,7.0,11.0,36,0.00,,,0.00,717.0,meteohub,2013-08-16 22:54:00,
2013-08-16 15:59:00,88.2,57.0,30.06,NW,311,8.0,11.0,35,0.00,,,0.00,707.0,meteohub,2013-08-16 22:59:00,
2013-08-16 16:05:00,88.0,57.7,30.06,WSW,244,7.0,11.0,36,0.00,,,0.00,694.0,meteohub,2013-08-16 23:05:00,
2013-08-16 16:10:00,88.3,57.2,30.06,WSW,238,6.0,11.0,35,0.00,,,0.00,684.0,meteohub,2013-08-16 23:10:00,
2013-08-16 16:15:00,88.0,57.7,30.06,SW,231,7.0,11.0,36,0.00,,,0.00,677.0,meteohub,2013-08-16 23:15:00,
2013-08-16 16:20:00,87.4,57.2,30.06,SW,215,5.0,13.0,36,0.00,,,0.00,659.0,meteohub,2013-08-16 23:20:00,
2013-08-16 16:25:00,87.4,57.9,30.06,SW,221,5.0,12.0,37,0.00,,,0.00,649.0,meteohub,2013-08-16 23:25:00,
2013-08-16 16:30:00,87.6,57.4,30.06,West,267,5.0,11.0,36,0.00,,,0.00,482.0,meteohub,2013-08-16 23:30:00,
2013-08-16 16:35:00,87.4,57.2,30.06,SW,226,5.0,11.0,36,0.00,,,0.00,617.0,meteohub,2013-08-16 23:35:00,
2013-08-16 16:40:00,87.3,57.0,30.06,SW,223,7.0,11.0,36,0.00,,,0.00,601.0,meteohub,2013-08-16 23:40:00,
2013-08-16 16:45:00,86.5,57.2,30.05,West,260,4.0,11.0,37,0.00,,,0.00,587.0,meteohub,2013-08-16 23:45:00,
2013-08-16 16:50:00,86.2,56.1,30.05,WSW,251,7.0,11.0,36,0.00,,,0.00,520.0,meteohub,2013-08-16 23:50:00,
2013-08-16 16:55:00,85.8,56.5,30.05,WSW,241,7.0,11.0,37,0.00,,,0.00,563.0,meteohub,2013-08-16 23:55:00,
2013-08-16 17:01:00,86.2,56.1,30.05,WSW,254,5.0,12.0,36,0.00,,,0.00,547.0,meteohub,2013-08-17 00:01:00,
2013-08-16 17:06:00,86.2,56.1,30.05,SW,227,4.0,12.0,36,0.00,,,0.00,533.0,meteohub,2013-08-17 00:06:00,
2013-08-16 17:11:00,85.8,55.8,30.05,SW,229,6.0,13.0,36,0.00,,,0.00,522.0,meteohub,2013-08-17 00:11:00,
2013-08-16 17:16:00,85.5,56.3,30.05,SW,219,8.0,13.0,37,0.00,,,0.00,515.0,meteohub,2013-08-17 00:16:00,
2013-08-16 17:21:00,85.3,56.1,30.05,SW,236,5.0,13.0,37,0.00,,,0.00,494.0,meteohub,2013-08-17 00:21:00,
2013-08-16 17:26:00,84.9,55.0,30.05,SW,227,9.0,11.0,36,0.00,,,0.00,489.0,meteohub,2013-08-17 00:26:00,
2013-08-16 17:31:00,84.0,55.8,30.05,SW,215,6.0,13.0,38,0.00,,,0.00,473.0,meteohub,2013-08-17 00:31:00,
2013-08-16 17:36:00,84.0,55.8,30.05,WSW,238,6.0,13.0,38,0.00,,,0.00,452.0,meteohub,2013-08-17 00:36:00,
2013-08-16 17:41:00,84.2,55.0,30.05,WSW,241,8.0,13.0,37,0.00,,,0.00,431.0,meteohub,2013-08-17 00:41:00,
2013-08-16 17:46:00,84.0,54.1,30.05,WSW,242,4.0,13.0,36,0.00,,,0.00,327.0,meteohub,2013-08-17 00:46:00,
2013-08-16 17:51:00,84.2,52.7,30.05,WSW,250,5.0,10.0,34,0.00,,,0.00,396.0,meteohub,2013-08-17 00:51:00,
2013-08-16 17:56:00,84.0,54.1,30.05,WSW,254,5.0,11.0,36,0.00,,,0.00,380.0,meteohub,2013-08-17 00:56:00,
2013-08-16 18:01:00,84.0,53.4,30.05,SW,229,6.0,11.0,35,0.00,,,0.00,362.0,meteohub,2013-08-17 01:01:00,
2013-08-16 18:07:00,84.2,53.6,30.05,West,262,3.0,11.0,35,0.00,,,0.00,338.0,meteohub,2013-08-17 01:07:00,
2013-08-16 18:12:00,84.2,53.6,30.04,WSW,246,4.0,10.0,35,0.00,,,0.00,320.0,meteohub,2013-08-17 01:12:00,
2013-08-16 18:17:00,84.2,54.3,30.05,WSW,243,8.0,10.0,36,0.00,,,0.00,316.0,meteohub,2013-08-17 01:17:00,
2013-08-16 18:22:00,83.8,54.0,30.05,SSW,213,4.0,10.0,36,0.00,,,0.00,297.0,meteohub,2013-08-17 01:22:00,
2013-08-16 18:27:00,83.5,55.2,30.05,WSW,248,6.0,10.0,38,0.00,,,0.00,279.0,meteohub,2013-08-17 01:27:00,
2013-08-16 18:32:00,82.9,55.4,30.04,WSW,240,4.0,10.0,39,0.00,,,0.00,241.0,meteohub,2013-08-17 01:32:00,
2013-08-16 18:37:00,82.8,55.9,30.05,WSW,239,4.0,10.0,40,0.00,,,0.00,244.0,meteohub,2013-08-17 01:37:00,
2013-08-16 18:42:00,82.6,56.5,30.04,West,259,5.0,9.0,41,0.00,,,0.00,225.0,meteohub,2013-08-17 01:42:00,
2013-08-16 18:47:00,82.0,56.7,30.05,West,263,3.0,8.0,42,0.00,,,0.00,209.0,meteohub,2013-08-17 01:47:00,
2013-08-16 18:52:00,81.5,56.8,30.05,WSW,250,4.0,8.0,43,0.00,,,0.00,188.0,meteohub,2013-08-17 01:52:00,
2013-08-16 18:57:00,80.8,57.4,30.05,WSW,244,4.0,8.0,45,0.00,,,0.00,165.0,meteohub,2013-08-17 01:57:00,
2013-08-16 19:02:00,79.9,57.2,30.05,West,265,7.0,9.0,46,0.00,,,0.00,116.0,meteohub,2013-08-17 02:02:00,
2013-08-16 19:07:00,79.0,57.6,30.05,WSW,258,2.0,9.0,48,0.00,,,0.00,125.0,meteohub,2013-08-17 02:07:00,
2013-08-16 19:12:00,78.1,57.4,30.05,West,264,3.0,9.0,49,0.00,,,0.00,98.0,meteohub,2013-08-17 02:12:00,
2013-08-16 19:17:00,77.2,57.7,30.05,WSW,242,7.0,8.0,51,0.00,,,0.00,88.0,meteohub,2013-08-17 02:17:00,
2013-08-16 19:22:00,76.6,57.7,30.05,WSW,255,5.0,8.0,52,0.00,,,0.00,77.0,meteohub,2013-08-17 02:22:00,
2013-08-16 19:27:00,75.7,57.9,30.05,WSW,254,5.0,8.0,54,0.00,,,0.00,51.0,meteohub,2013-08-17 02:27:00,
2013-08-16 19:32:00,74.8,58.1,30.05,WSW,247,4.0,8.0,56,0.00,,,0.00,51.0,meteohub,2013-08-17 02:32:00,
2013-08-16 19:37:00,74.1,57.9,30.05,WSW,253,4.0,9.0,57,0.00,,,0.00,37.0,meteohub,2013-08-17 02:37:00,
2013-08-16 19:42:00,73.6,58.3,30.05,West,268,3.0,9.0,59,0.00,,,0.00,28.0,meteohub,2013-08-17 02:42:00,
2013-08-16 19:47:00,72.9,58.1,30.05,WSW,250,3.0,8.0,60,0.00,,,0.00,14.0,meteohub,2013-08-17 02:47:00,
2013-08-16 19:52:00,72.1,57.9,30.05,WSW,248,4.0,8.0,61,0.00,,,0.00,7.0,meteohub,2013-08-17 02:52:00,
2013-08-16 19:57:00,71.6,57.9,30.05,WSW,252,2.0,8.0,62,0.00,,,0.00,5.0,meteohub,2013-08-17 02:57:00,
2013-08-16 20:02:00,71.1,57.7,30.05,WSW,240,3.0,9.0,63,0.00,,,0.00,0.0,meteohub,2013-08-17 03:02:00,
2013-08-16 20:07:00,70.5,57.7,30.05,WSW,247,2.0,9.0,64,0.00,,,0.00,0.0,meteohub,2013-08-17 03:07:00,
2013-08-16 20:12:00,70.3,57.6,30.05,SW,231,5.0,9.0,64,0.00,,,0.00,0.0,meteohub,2013-08-17 03:12:00,
2013-08-16 20:17:00,70.0,57.7,30.05,WSW,257,5.0,8.0,65,0.00,,,0.00,0.0,meteohub,2013-08-17 03:17:00,
2013-08-16 20:22:00,69.6,57.4,30.05,WSW,249,2.0,8.0,65,0.00,,,0.00,0.0,meteohub,2013-08-17 03:22:00,
2013-08-16 20:27:00,69.4,57.6,30.05,WSW,246,3.0,9.0,66,0.00,,,0.00,0.0,meteohub,2013-08-17 03:27:00,
2013-08-16 20:32:00,69.3,57.4,30.05,WSW,257,4.0,9.0,66,0.00,,,0.00,0.0,meteohub,2013-08-17 03:32:00,
2013-08-16 20:37:00,69.1,57.2,30.05,West,261,1.0,5.0,66,0.00,,,0.00,0.0,meteohub,2013-08-17 03:37:00,
2013-08-16 20:42:00,68.7,57.4,30.05,WSW,239,5.0,5.0,67,0.00,,,0.00,0.0,meteohub,2013-08-17 03:42:00,
2013-08-16 20:47:00,68.5,57.2,30.06,WSW,250,4.0,5.0,67,0.00,,,0.00,0.0,meteohub,2013-08-17 03:47:00,
2013-08-16 20:52:00,68.4,57.0,30.06,SW,235,1.0,5.0,67,0.00,,,0.00,0.0,meteohub,2013-08-17 03:52:00,
2013-08-16 20:57:00,68.2,56.8,30.06,SW,236,0.0,5.0,67,0.00,,,0.00,0.0,meteohub,2013-08-17 03:57:00,
2013-08-16 21:01:00,68.0,57.0,30.06,West,259,3.0,5.0,68,0.00,,,0.00,0.0,meteohub,2013-08-17 04:01:00,
2013-08-16 21:02:00,67.8,56.8,30.06,WSW,240,1.0,5.0,68,0.00,,,0.00,0.0,meteohub,2013-08-17 04:02:00,
2013-08-16 21:03:00,67.8,56.8,30.06,WSW,246,0.0,5.0,68,0.00,,,0.00,0.0,meteohub,2013-08-17 04:03:00,
2013-08-16 21:08:00,67.6,56.7,30.06,SW,236,2.0,5.0,68,0.00,,,0.00,0.0,meteohub,2013-08-17 04:08:00,
2013-08-16 21:13:00,67.3,56.8,30.06,West,265,0.0,5.0,69,0.00,,,0.00,0.0,meteohub,2013-08-17 04:13:00,
2013-08-16 21:18:00,66.9,56.8,30.06,West,263,1.0,5.0,70,0.00,,,0.00,0.0,meteohub,2013-08-17 04:18:00,
2013-08-16 21:23:00,66.7,57.0,30.06,West,262,3.0,5.0,71,0.00,,,0.00,0.0,meteohub,2013-08-17 04:23:00,
2013-08-16 21:28:00,66.0,56.3,30.06,West,277,4.0,4.0,71,0.00,,,0.00,0.0,meteohub,2013-08-17 04:28:00,
2013-08-16 21:33:00,65.7,56.3,30.07,WSW,240,3.0,5.0,72,0.00,,,0.00,0.0,meteohub,2013-08-17 04:33:00,
2013-08-16 21:38:00,65.3,56.5,30.07,WSW,252,0.0,6.0,73,0.00,,,0.00,0.0,meteohub,2013-08-17 04:38:00,
2013-08-16 21:43:00,65.1,56.7,30.07,WSW,252,0.0,6.0,74,0.00,,,0.00,0.0,meteohub,2013-08-17 04:43:00,
2013-08-16 21:48:00,64.8,56.7,30.08,WSW,252,0.0,6.0,75,0.00,,,0.00,0.0,meteohub,2013-08-17 04:48:00,
2013-08-16 21:53:00,64.4,56.3,30.08,WSW,248,2.0,3.0,75,0.00,,,0.00,0.0,meteohub,2013-08-17 04:53:00,
2013-08-16 21:58:00,64.0,55.9,30.08,SW,235,1.0,7.0,75,0.00,,,0.00,0.0,meteohub,2013-08-17 04:58:00,
2013-08-16 22:03:00,63.7,55.9,30.07,WSW,248,1.0,7.0,76,0.00,,,0.00,0.0,meteohub,2013-08-17 05:03:00,
2013-08-16 22:08:00,63.5,55.8,30.07,West,281,1.0,7.0,76,0.00,,,0.00,0.0,meteohub,2013-08-17 05:08:00,
2013-08-16 22:13:00,63.3,55.2,30.08,West,270,0.0,4.0,75,0.00,,,0.00,0.0,meteohub,2013-08-17 05:13:00,
2013-08-16 22:19:00,63.3,55.2,30.08,West,270,0.0,5.0,75,0.00,,,0.00,0.0,meteohub,2013-08-17 05:19:00,
2013-08-16 22:24:00,63.3,55.2,30.07,West,270,0.0,5.0,75,0.00,,,0.00,0.0,meteohub,2013-08-17 05:24:00,
2013-08-16 22:29:00,63.3,54.9,30.07,West,270,0.0,5.0,74,0.00,,,0.00,0.0,meteohub,2013-08-17 05:29:00,
2013-08-16 22:34:00,63.1,55.4,30.08,WSW,243,0.0,2.0,76,0.00,,,0.00,0.0,meteohub,2013-08-17 05:34:00,
2013-08-16 22:39:00,62.8,55.0,30.08,WNW,292,1.0,3.0,76,0.00,,,0.00,0.0,meteohub,2013-08-17 05:39:00,
2013-08-16 22:44:00,62.4,55.0,30.07,WSW,251,0.0,4.0,77,0.00,,,0.00,0.0,meteohub,2013-08-17 05:44:00,
2013-08-16 22:49:00,62.2,54.9,30.08,WSW,251,0.0,4.0,77,0.00,,,0.00,0.0,meteohub,2013-08-17 05:49:00,
2013-08-16 22:54:00,62.1,54.7,30.08,SW,229,1.0,3.0,77,0.00,,,0.00,0.0,meteohub,2013-08-17 05:54:00,
2013-08-16 22:59:00,61.9,54.7,30.08,SW,233,1.0,2.0,77,0.00,,,0.00,0.0,meteohub,2013-08-17 05:59:00,
2013-08-16 23:04:00,61.7,54.5,30.08,SW,232,3.0,3.0,77,0.00,,,0.00,0.0,meteohub,2013-08-17 06:04:00,
2013-08-16 23:09:00,61.5,54.7,30.08,West,269,0.0,4.0,78,0.00,,,0.00,0.0,meteohub,2013-08-17 06:09:00,
2013-08-16 23:14:00,61.3,54.5,30.08,West,269,1.0,4.0,78,0.00,,,0.00,0.0,meteohub,2013-08-17 06:14:00,
2013-08-16 23:19:00,61.2,54.3,30.08,West,273,0.0,4.0,78,0.00,,,0.00,0.0,meteohub,2013-08-17 06:19:00,
2013-08-16 23:24:00,61.0,54.1,30.08,West,277,0.0,2.0,78,0.00,,,0.00,0.0,meteohub,2013-08-17 06:24:00,
2013-08-16 23:29:00,61.0,54.1,30.07,West,262,0.0,3.0,78,0.00,,,0.00,0.0,meteohub,2013-08-17 06:29:00,
2013-08-16 23:34:00,60.6,53.8,30.07,NW,304,2.0,3.0,78,0.00,,,0.00,0.0,meteohub,2013-08-17 06:34:00,
2013-08-16 23:39:00,60.6,53.8,30.07,SSE,162,0.0,3.0,78,0.00,,,0.00,0.0,meteohub,2013-08-17 06:39:00,
2013-08-16 23:44:00,60.4,53.2,30.07,WSW,249,1.0,3.0,77,0.00,,,0.00,0.0,meteohub,2013-08-17 06:44:00,
2013-08-16 23:49:00,60.4,53.2,30.07,SSW,213,1.0,3.0,77,0.00,,,0.00,0.0,meteohub,2013-08-17 06:49:00,
2013-08-16 23:54:00,60.4,53.2,30.07,SSW,213,0.0,4.0,77,0.00,,,0.00,0.0,meteohub,2013-08-17 06:54:00,
2013-08-16 23:59:00,60.4,53.2,30.08,West,279,1.0,4.0,77,0.00,,,0.00,0.0,meteohub,2013-08-17 06:59:00,